sensor_id;sensor_type;location;lat;lon;timestamp;temperature;humidity
3418;DHT22;1722;51.316;12.370;2023-02-19T00:01:06;9.50;99.90
3418;DHT22;1722;51.316;12.370;2023-02-19T00:03:35;9.50;99.90
3418;DHT22;1722;51.316;12.370;2023-02-19T00:06:05;9.50;99.90
3418;DHT22;1722;51.316;12.370;2023-02-19T00:08:34;9.50;99.90
3418;DHT22;1722;51.316;12.370;2023-02-19T00:11:02;9.60;99.90
3418;DHT22;1722;51.316;12.370;2023-02-19T00:13:30;9.60;99.90
3418;DHT22;1722;51.316;12.370;2023-02-19T00:16:05;9.60;99.90
3418;DHT22;1722;51.316;12.370;2023-02-19T00:18:32;9.60;99.90
3418;DHT22;1722;51.316;12.370;2023-02-19T00:21:00;9.60;99.90
3418;DHT22;1722;51.316;12.370;2023-02-19T00:23:29;9.60;99.90
3418;DHT22;1722;51.316;12.370;2023-02-19T00:26:01;9.60;99.90
3418;DHT22;1722;51.316;12.370;2023-02-19T00:28:29;9.60;99.90
3418;DHT22;1722;51.316;12.370;2023-02-19T00:31:03;9.50;99.90
3418;DHT22;1722;51.316;12.370;2023-02-19T00:33:30;9.60;99.90
3418;DHT22;1722;51.316;12.370;2023-02-19T00:35:59;9.60;99.90
3418;DHT22;1722;51.316;12.370;2023-02-19T00:38:27;9.60;99.90
3418;DHT22;1722;51.316;12.370;2023-02-19T00:40:57;9.60;99.90
3418;DHT22;1722;51.316;12.370;2023-02-19T00:43:25;9.60;99.90
3418;DHT22;1722;51.316;12.370;2023-02-19T00:45:53;9.60;99.90
3418;DHT22;1722;51.316;12.370;2023-02-19T00:48:20;9.60;99.90
3418;DHT22;1722;51.316;12.370;2023-02-19T00:50:48;9.60;99.90
3418;DHT22;1722;51.316;12.370;2023-02-19T00:53:15;9.60;99.90
3418;DHT22;1722;51.316;12.370;2023-02-19T00:55:43;9.60;99.90
3418;DHT22;1722;51.316;12.370;2023-02-19T00:58:12;9.70;99.90
3418;DHT22;1722;51.316;12.370;2023-02-19T01:00:39;9.60;99.90
3418;DHT22;1722;51.316;12.370;2023-02-19T01:03:06;9.50;99.90
3418;DHT22;1722;51.316;12.370;2023-02-19T01:05:34;9.50;99.90
3418;DHT22;1722;51.316;12.370;2023-02-19T01:08:01;9.40;99.90
3418;DHT22;1722;51.316;12.370;2023-02-19T01:10:29;9.40;99.90
3418;DHT22;1722;51.316;12.370;2023-02-19T01:12:56;9.40;99.90
3418;DHT22;1722;51.316;12.370;2023-02-19T01:15:25;9.40;99.90
3418;DHT22;1722;51.316;12.370;2023-02-19T01:17:53;9.20;99.90
3418;DHT22;1722;51.316;12.370;2023-02-19T01:20:20;9.10;99.90
3418;DHT22;1722;51.316;12.370;2023-02-19T01:22:48;9.10;99.90
3418;DHT22;1722;51.316;12.370;2023-02-19T01:25:15;9.20;99.90
3418;DHT22;1722;51.316;12.370;2023-02-19T01:27:43;9.20;99.90
3418;DHT22;1722;51.316;12.370;2023-02-19T01:30:11;9.20;99.90
3418;DHT22;1722;51.316;12.370;2023-02-19T01:32:40;9.10;99.90
3418;DHT22;1722;51.316;12.370;2023-02-19T01:35:07;9.10;99.90
3418;DHT22;1722;51.316;12.370;2023-02-19T01:37:35;9.10;99.90
3418;DHT22;1722;51.316;12.370;2023-02-19T01:40:03;9.10;99.90
3418;DHT22;1722;51.316;12.370;2023-02-19T01:42:30;9.10;99.90
3418;DHT22;1722;51.316;12.370;2023-02-19T01:45:26;9.10;99.90
3418;DHT22;1722;51.316;12.370;2023-02-19T01:48:07;9.10;99.90
3418;DHT22;1722;51.316;12.370;2023-02-19T01:50:38;9.10;99.90
3418;DHT22;1722;51.316;12.370;2023-02-19T01:53:07;9.00;99.90
3418;DHT22;1722;51.316;12.370;2023-02-19T01:55:36;9.10;99.90
3418;DHT22;1722;51.316;12.370;2023-02-19T01:58:05;9.10;99.90
3418;DHT22;1722;51.316;12.370;2023-02-19T02:00:35;9.10;99.90
3418;DHT22;1722;51.316;12.370;2023-02-19T02:03:05;9.10;99.90
3418;DHT22;1722;51.316;12.370;2023-02-19T02:05:42;9.20;99.90
3418;DHT22;1722;51.316;12.370;2023-02-19T02:08:11;9.30;99.90
3418;DHT22;1722;51.316;12.370;2023-02-19T02:10:57;9.30;99.90
3418;DHT22;1722;51.316;12.370;2023-02-19T02:13:25;9.40;99.90
3418;DHT22;1722;51.316;12.370;2023-02-19T02:15:58;9.40;99.90
3418;DHT22;1722;51.316;12.370;2023-02-19T02:18:37;9.40;99.90
3418;DHT22;1722;51.316;12.370;2023-02-19T02:27:26;9.40;99.90
3418;DHT22;1722;51.316;12.370;2023-02-19T02:30:11;9.30;99.90
3418;DHT22;1722;51.316;12.370;2023-02-19T02:32:44;9.40;99.90
3418;DHT22;1722;51.316;12.370;2023-02-19T02:35:21;9.40;99.90
3418;DHT22;1722;51.316;12.370;2023-02-19T02:37:50;9.40;99.90
3418;DHT22;1722;51.316;12.370;2023-02-19T02:40:21;9.50;99.90
3418;DHT22;1722;51.316;12.370;2023-02-19T02:42:49;9.40;99.90
3418;DHT22;1722;51.316;12.370;2023-02-19T02:45:29;9.40;99.90
3418;DHT22;1722;51.316;12.370;2023-02-19T02:48:10;9.60;99.90
3418;DHT22;1722;51.316;12.370;2023-02-19T02:50:42;9.40;99.90
3418;DHT22;1722;51.316;12.370;2023-02-19T02:53:15;9.50;99.90
3418;DHT22;1722;51.316;12.370;2023-02-19T02:56:02;9.40;99.90
3418;DHT22;1722;51.316;12.370;2023-02-19T02:58:30;9.20;99.90
3418;DHT22;1722;51.316;12.370;2023-02-19T03:01:02;9.20;99.90
3418;DHT22;1722;51.316;12.370;2023-02-19T03:03:53;9.20;99.90
3418;DHT22;1722;51.316;12.370;2023-02-19T03:06:24;9.20;99.90
3418;DHT22;1722;51.316;12.370;2023-02-19T03:08:58;9.20;99.90
3418;DHT22;1722;51.316;12.370;2023-02-19T03:11:27;9.30;99.90
3418;DHT22;1722;51.316;12.370;2023-02-19T03:14:16;9.40;99.90
3418;DHT22;1722;51.316;12.370;2023-02-19T03:17:09;9.40;99.90
3418;DHT22;1722;51.316;12.370;2023-02-19T03:19:57;9.30;99.90
3418;DHT22;1722;51.316;12.370;2023-02-19T03:22:28;9.20;99.90
3418;DHT22;1722;51.316;12.370;2023-02-19T03:25:00;9.10;99.90
3418;DHT22;1722;51.316;12.370;2023-02-19T03:27:47;9.10;99.90
3418;DHT22;1722;51.316;12.370;2023-02-19T03:32:48;9.10;99.90
3418;DHT22;1722;51.316;12.370;2023-02-19T03:35:20;9.10;99.90
3418;DHT22;1722;51.316;12.370;2023-02-19T03:37:53;9.10;99.90
3418;DHT22;1722;51.316;12.370;2023-02-19T03:40:27;9.00;99.90
3418;DHT22;1722;51.316;12.370;2023-02-19T03:43:01;9.00;99.90
3418;DHT22;1722;51.316;12.370;2023-02-19T03:45:42;9.00;99.90
3418;DHT22;1722;51.316;12.370;2023-02-19T03:48:26;9.10;99.90
3418;DHT22;1722;51.316;12.370;2023-02-19T03:51:04;9.10;99.90
3418;DHT22;1722;51.316;12.370;2023-02-19T03:53:39;9.10;99.90
3418;DHT22;1722;51.316;12.370;2023-02-19T03:56:19;9.10;99.90
3418;DHT22;1722;51.316;12.370;2023-02-19T03:58:54;9.10;99.90
3418;DHT22;1722;51.316;12.370;2023-02-19T04:01:27;9.10;99.90
3418;DHT22;1722;51.316;12.370;2023-02-19T04:04:03;9.00;99.90
3418;DHT22;1722;51.316;12.370;2023-02-19T04:06:35;9.10;99.90
3418;DHT22;1722;51.316;12.370;2023-02-19T04:09:06;9.20;99.90
3418;DHT22;1722;51.316;12.370;2023-02-19T04:11:35;9.30;99.90
3418;DHT22;1722;51.316;12.370;2023-02-19T04:14:06;9.20;99.90
3418;DHT22;1722;51.316;12.370;2023-02-19T04:16:39;9.20;99.90
3418;DHT22;1722;51.316;12.370;2023-02-19T04:19:11;9.20;99.90
3418;DHT22;1722;51.316;12.370;2023-02-19T04:21:40;9.40;99.90
3418;DHT22;1722;51.316;12.370;2023-02-19T04:24:11;9.30;99.90
3418;DHT22;1722;51.316;12.370;2023-02-19T04:26:40;9.20;99.90
3418;DHT22;1722;51.316;12.370;2023-02-19T04:29:08;9.30;99.90
3418;DHT22;1722;51.316;12.370;2023-02-19T04:31:37;9.50;99.90
3418;DHT22;1722;51.316;12.370;2023-02-19T04:34:04;9.60;99.90
3418;DHT22;1722;51.316;12.370;2023-02-19T04:36:33;9.60;99.90
3418;DHT22;1722;51.316;12.370;2023-02-19T04:39:01;9.60;99.90
3418;DHT22;1722;51.316;12.370;2023-02-19T04:41:28;9.40;99.90
3418;DHT22;1722;51.316;12.370;2023-02-19T04:43:56;9.30;99.90
3418;DHT22;1722;51.316;12.370;2023-02-19T04:46:23;9.20;99.90
3418;DHT22;1722;51.316;12.370;2023-02-19T04:48:51;9.20;99.90
3418;DHT22;1722;51.316;12.370;2023-02-19T04:51:18;9.20;99.90
3418;DHT22;1722;51.316;12.370;2023-02-19T04:53:47;9.40;99.90
3418;DHT22;1722;51.316;12.370;2023-02-19T04:56:16;9.50;99.90
3418;DHT22;1722;51.316;12.370;2023-02-19T04:58:44;9.50;99.90
3418;DHT22;1722;51.316;12.370;2023-02-19T05:01:12;9.60;99.90
3418;DHT22;1722;51.316;12.370;2023-02-19T05:03:39;9.70;99.90
3418;DHT22;1722;51.316;12.370;2023-02-19T05:06:09;9.70;99.90
3418;DHT22;1722;51.316;12.370;2023-02-19T05:08:37;9.80;99.90
3418;DHT22;1722;51.316;12.370;2023-02-19T05:11:09;9.70;99.90
3418;DHT22;1722;51.316;12.370;2023-02-19T05:13:38;9.60;99.90
3418;DHT22;1722;51.316;12.370;2023-02-19T05:16:07;9.60;99.90
3418;DHT22;1722;51.316;12.370;2023-02-19T05:18:39;9.50;99.90
3418;DHT22;1722;51.316;12.370;2023-02-19T05:21:06;9.30;99.90
3418;DHT22;1722;51.316;12.370;2023-02-19T05:23:34;9.20;99.90
3418;DHT22;1722;51.316;12.370;2023-02-19T05:26:05;9.20;99.90
3418;DHT22;1722;51.316;12.370;2023-02-19T05:28:34;9.10;99.90
3418;DHT22;1722;51.316;12.370;2023-02-19T05:31:04;9.10;99.90
3418;DHT22;1722;51.316;12.370;2023-02-19T05:33:32;9.10;99.90
3418;DHT22;1722;51.316;12.370;2023-02-19T05:36:04;9.20;99.90
3418;DHT22;1722;51.316;12.370;2023-02-19T05:38:32;9.20;99.90
3418;DHT22;1722;51.316;12.370;2023-02-19T05:41:09;9.20;99.90
3418;DHT22;1722;51.316;12.370;2023-02-19T05:43:37;9.20;99.90
3418;DHT22;1722;51.316;12.370;2023-02-19T05:46:05;9.20;99.90
3418;DHT22;1722;51.316;12.370;2023-02-19T05:48:33;9.20;99.90
3418;DHT22;1722;51.316;12.370;2023-02-19T05:51:01;9.20;99.90
3418;DHT22;1722;51.316;12.370;2023-02-19T05:53:29;9.20;99.90
3418;DHT22;1722;51.316;12.370;2023-02-19T05:55:56;9.20;99.90
3418;DHT22;1722;51.316;12.370;2023-02-19T05:58:26;9.20;99.90
3418;DHT22;1722;51.316;12.370;2023-02-19T06:00:54;9.20;99.90
3418;DHT22;1722;51.316;12.370;2023-02-19T06:03:21;9.20;99.90
3418;DHT22;1722;51.316;12.370;2023-02-19T06:05:49;9.20;99.90
3418;DHT22;1722;51.316;12.370;2023-02-19T06:08:17;9.20;99.90
3418;DHT22;1722;51.316;12.370;2023-02-19T06:10:44;9.10;99.90
3418;DHT22;1722;51.316;12.370;2023-02-19T06:13:12;9.10;99.90
3418;DHT22;1722;51.316;12.370;2023-02-19T06:15:40;9.00;99.90
3418;DHT22;1722;51.316;12.370;2023-02-19T06:18:08;9.00;99.90
3418;DHT22;1722;51.316;12.370;2023-02-19T06:20:35;9.10;99.90
3418;DHT22;1722;51.316;12.370;2023-02-19T06:23:03;9.00;99.90
3418;DHT22;1722;51.316;12.370;2023-02-19T06:25:30;9.00;99.90
3418;DHT22;1722;51.316;12.370;2023-02-19T06:27:58;9.00;99.90
3418;DHT22;1722;51.316;12.370;2023-02-19T06:30:26;9.10;99.90
3418;DHT22;1722;51.316;12.370;2023-02-19T06:32:54;9.20;99.90
3418;DHT22;1722;51.316;12.370;2023-02-19T06:35:22;9.20;99.90
3418;DHT22;1722;51.316;12.370;2023-02-19T06:37:50;9.30;99.90
3418;DHT22;1722;51.316;12.370;2023-02-19T06:40:17;9.30;99.90
3418;DHT22;1722;51.316;12.370;2023-02-19T06:42:45;9.30;99.90
3418;DHT22;1722;51.316;12.370;2023-02-19T06:45:12;9.30;99.90
3418;DHT22;1722;51.316;12.370;2023-02-19T06:47:40;9.30;99.90
3418;DHT22;1722;51.316;12.370;2023-02-19T06:50:09;9.40;99.90
3418;DHT22;1722;51.316;12.370;2023-02-19T06:52:36;9.50;99.90
3418;DHT22;1722;51.316;12.370;2023-02-19T06:55:04;9.60;99.90
3418;DHT22;1722;51.316;12.370;2023-02-19T06:57:32;9.70;99.90
3418;DHT22;1722;51.316;12.370;2023-02-19T06:59:59;9.60;99.90
3418;DHT22;1722;51.316;12.370;2023-02-19T07:02:27;9.60;99.90
3418;DHT22;1722;51.316;12.370;2023-02-19T07:04:54;9.60;99.90
3418;DHT22;1722;51.316;12.370;2023-02-19T07:07:23;9.60;99.90
3418;DHT22;1722;51.316;12.370;2023-02-19T07:09:50;9.60;99.90
3418;DHT22;1722;51.316;12.370;2023-02-19T07:12:18;9.50;99.90
3418;DHT22;1722;51.316;12.370;2023-02-19T07:14:45;9.50;99.90
3418;DHT22;1722;51.316;12.370;2023-02-19T07:17:13;9.50;99.90
3418;DHT22;1722;51.316;12.370;2023-02-19T07:19:40;9.40;99.90
3418;DHT22;1722;51.316;12.370;2023-02-19T07:22:08;9.50;99.90
3418;DHT22;1722;51.316;12.370;2023-02-19T07:24:37;9.40;99.90
3418;DHT22;1722;51.316;12.370;2023-02-19T07:27:04;9.40;99.90
3418;DHT22;1722;51.316;12.370;2023-02-19T07:29:32;9.40;99.90
3418;DHT22;1722;51.316;12.370;2023-02-19T07:31:59;9.30;99.90
3418;DHT22;1722;51.316;12.370;2023-02-19T07:34:27;9.30;99.90
3418;DHT22;1722;51.316;12.370;2023-02-19T07:36:54;9.30;99.90
3418;DHT22;1722;51.316;12.370;2023-02-19T07:39:22;9.20;99.90
3418;DHT22;1722;51.316;12.370;2023-02-19T07:41:51;9.10;99.90
3418;DHT22;1722;51.316;12.370;2023-02-19T07:44:18;9.10;99.90
3418;DHT22;1722;51.316;12.370;2023-02-19T07:46:46;9.00;99.90
3418;DHT22;1722;51.316;12.370;2023-02-19T07:49:13;9.00;99.90
3418;DHT22;1722;51.316;12.370;2023-02-19T07:51:41;9.00;99.90
3418;DHT22;1722;51.316;12.370;2023-02-19T07:54:09;8.90;99.90
3418;DHT22;1722;51.316;12.370;2023-02-19T07:56:37;8.90;99.90
3418;DHT22;1722;51.316;12.370;2023-02-19T07:59:06;8.80;99.90
3418;DHT22;1722;51.316;12.370;2023-02-19T08:01:34;8.70;99.90
3418;DHT22;1722;51.316;12.370;2023-02-19T08:04:24;8.70;99.90
3418;DHT22;1722;51.316;12.370;2023-02-19T08:06:52;8.70;99.90
3418;DHT22;1722;51.316;12.370;2023-02-19T08:09:19;8.60;99.90
3418;DHT22;1722;51.316;12.370;2023-02-19T08:11:47;8.60;99.90
3418;DHT22;1722;51.316;12.370;2023-02-19T08:14:33;8.60;99.90
3418;DHT22;1722;51.316;12.370;2023-02-19T08:17:01;8.50;99.90
3418;DHT22;1722;51.316;12.370;2023-02-19T08:19:29;8.40;99.90
3418;DHT22;1722;51.316;12.370;2023-02-19T08:21:56;8.40;99.90
3418;DHT22;1722;51.316;12.370;2023-02-19T08:24:24;8.40;99.90
3418;DHT22;1722;51.316;12.370;2023-02-19T08:26:51;8.30;99.90
3418;DHT22;1722;51.316;12.370;2023-02-19T08:29:19;8.20;99.90
3418;DHT22;1722;51.316;12.370;2023-02-19T08:31:48;8.20;99.90
3418;DHT22;1722;51.316;12.370;2023-02-19T08:34:15;8.10;99.90
3418;DHT22;1722;51.316;12.370;2023-02-19T08:36:43;8.10;99.90
3418;DHT22;1722;51.316;12.370;2023-02-19T08:39:10;8.00;99.90
3418;DHT22;1722;51.316;12.370;2023-02-19T08:41:38;7.90;99.90
3418;DHT22;1722;51.316;12.370;2023-02-19T08:44:05;7.90;99.90
3418;DHT22;1722;51.316;12.370;2023-02-19T08:46:33;7.90;99.90
3418;DHT22;1722;51.316;12.370;2023-02-19T08:49:02;7.90;99.90
3418;DHT22;1722;51.316;12.370;2023-02-19T08:51:30;7.90;99.90
3418;DHT22;1722;51.316;12.370;2023-02-19T08:53:58;7.90;99.90
3418;DHT22;1722;51.316;12.370;2023-02-19T08:56:28;7.90;99.90
3418;DHT22;1722;51.316;12.370;2023-02-19T08:58:55;7.80;99.90
3418;DHT22;1722;51.316;12.370;2023-02-19T09:01:23;7.80;99.90
3418;DHT22;1722;51.316;12.370;2023-02-19T09:03:52;7.60;99.90
3418;DHT22;1722;51.316;12.370;2023-02-19T09:06:20;7.60;99.90
3418;DHT22;1722;51.316;12.370;2023-02-19T09:08:48;7.60;99.90
3418;DHT22;1722;51.316;12.370;2023-02-19T09:11:16;7.60;99.90
3418;DHT22;1722;51.316;12.370;2023-02-19T09:13:43;7.60;99.90
3418;DHT22;1722;51.316;12.370;2023-02-19T09:16:11;7.60;99.90
3418;DHT22;1722;51.316;12.370;2023-02-19T09:18:39;7.60;99.90
3418;DHT22;1722;51.316;12.370;2023-02-19T09:21:06;7.50;99.90
3418;DHT22;1722;51.316;12.370;2023-02-19T09:23:36;7.50;99.90
3418;DHT22;1722;51.316;12.370;2023-02-19T09:26:05;7.50;99.90
3418;DHT22;1722;51.316;12.370;2023-02-19T09:28:35;7.50;99.90
3418;DHT22;1722;51.316;12.370;2023-02-19T09:31:05;7.40;99.90
3418;DHT22;1722;51.316;12.370;2023-02-19T09:33:33;7.40;99.90
3418;DHT22;1722;51.316;12.370;2023-02-19T09:36:01;7.40;99.90
3418;DHT22;1722;51.316;12.370;2023-02-19T09:38:28;7.40;99.90
3418;DHT22;1722;51.316;12.370;2023-02-19T09:40:58;7.40;99.90
3418;DHT22;1722;51.316;12.370;2023-02-19T09:43:32;7.40;99.90
3418;DHT22;1722;51.316;12.370;2023-02-19T09:46:03;7.40;99.90
3418;DHT22;1722;51.316;12.370;2023-02-19T09:48:32;7.40;99.90
3418;DHT22;1722;51.316;12.370;2023-02-19T09:51:00;7.40;99.90
3418;DHT22;1722;51.316;12.370;2023-02-19T09:53:34;7.40;99.90
3418;DHT22;1722;51.316;12.370;2023-02-19T09:56:07;7.40;99.90
3418;DHT22;1722;51.316;12.370;2023-02-19T09:58:40;7.40;99.90
3418;DHT22;1722;51.316;12.370;2023-02-19T10:01:10;7.30;99.90
3418;DHT22;1722;51.316;12.370;2023-02-19T10:03:40;7.30;99.90
3418;DHT22;1722;51.316;12.370;2023-02-19T10:06:15;7.30;99.90
3418;DHT22;1722;51.316;12.370;2023-02-19T10:08:46;7.30;99.90
3418;DHT22;1722;51.316;12.370;2023-02-19T10:11:16;7.30;99.90
3418;DHT22;1722;51.316;12.370;2023-02-19T10:13:46;7.30;99.90
3418;DHT22;1722;51.316;12.370;2023-02-19T10:16:18;7.30;99.90
3418;DHT22;1722;51.316;12.370;2023-02-19T10:18:46;7.30;99.90
3418;DHT22;1722;51.316;12.370;2023-02-19T10:21:16;7.30;98.70
3418;DHT22;1722;51.316;12.370;2023-02-19T10:23:46;7.20;99.60
3418;DHT22;1722;51.316;12.370;2023-02-19T10:26:16;7.20;98.70
3418;DHT22;1722;51.316;12.370;2023-02-19T10:28:44;7.20;99.00
3418;DHT22;1722;51.316;12.370;2023-02-19T10:31:15;7.20;99.80
3418;DHT22;1722;51.316;12.370;2023-02-19T10:33:51;7.30;99.90
3418;DHT22;1722;51.316;12.370;2023-02-19T10:36:27;7.30;99.90
3418;DHT22;1722;51.316;12.370;2023-02-19T10:38:55;7.30;99.70
3418;DHT22;1722;51.316;12.370;2023-02-19T10:41:25;7.30;99.90
3418;DHT22;1722;51.316;12.370;2023-02-19T10:43:55;7.40;99.90
3418;DHT22;1722;51.316;12.370;2023-02-19T10:46:27;7.50;99.90
3418;DHT22;1722;51.316;12.370;2023-02-19T10:48:57;7.40;99.10
3418;DHT22;1722;51.316;12.370;2023-02-19T10:51:31;7.30;99.30
3418;DHT22;1722;51.316;12.370;2023-02-19T10:54:04;7.30;99.40
3418;DHT22;1722;51.316;12.370;2023-02-19T10:56:33;7.40;99.40
3418;DHT22;1722;51.316;12.370;2023-02-19T10:59:23;7.40;99.50
3418;DHT22;1722;51.316;12.370;2023-02-19T11:01:55;7.50;98.10
3418;DHT22;1722;51.316;12.370;2023-02-19T11:04:24;7.50;98.70
3418;DHT22;1722;51.316;12.370;2023-02-19T11:06:52;7.30;97.20
3418;DHT22;1722;51.316;12.370;2023-02-19T11:09:25;7.30;97.70
3418;DHT22;1722;51.316;12.370;2023-02-19T11:11:55;7.30;98.50
3418;DHT22;1722;51.316;12.370;2023-02-19T11:14:26;7.30;98.90
3418;DHT22;1722;51.316;12.370;2023-02-19T11:16:56;7.30;98.00
3418;DHT22;1722;51.316;12.370;2023-02-19T11:19:30;7.30;98.60
3418;DHT22;1722;51.316;12.370;2023-02-19T11:22:00;7.30;98.20
3418;DHT22;1722;51.316;12.370;2023-02-19T11:24:32;7.30;98.10
3418;DHT22;1722;51.316;12.370;2023-02-19T11:27:06;7.30;98.20
3418;DHT22;1722;51.316;12.370;2023-02-19T11:29:42;7.40;97.90
3418;DHT22;1722;51.316;12.370;2023-02-19T11:32:22;7.40;97.00
3418;DHT22;1722;51.316;12.370;2023-02-19T11:34:51;7.40;97.90
3418;DHT22;1722;51.316;12.370;2023-02-19T11:37:19;7.40;97.30
3418;DHT22;1722;51.316;12.370;2023-02-19T11:39:48;7.50;96.70
3418;DHT22;1722;51.316;12.370;2023-02-19T11:42:40;7.40;95.70
3418;DHT22;1722;51.316;12.370;2023-02-19T11:45:28;7.30;95.40
3418;DHT22;1722;51.316;12.370;2023-02-19T11:51:17;7.40;96.80
3418;DHT22;1722;51.316;12.370;2023-02-19T11:53:50;7.40;95.70
3418;DHT22;1722;51.316;12.370;2023-02-19T11:56:23;7.40;95.20
3418;DHT22;1722;51.316;12.370;2023-02-19T11:58:59;7.40;94.60
3418;DHT22;1722;51.316;12.370;2023-02-19T12:01:44;7.40;95.30
3418;DHT22;1722;51.316;12.370;2023-02-19T12:04:43;7.50;97.70
3418;DHT22;1722;51.316;12.370;2023-02-19T12:07:23;7.30;95.80
3418;DHT22;1722;51.316;12.370;2023-02-19T12:10:02;7.40;97.00
3418;DHT22;1722;51.316;12.370;2023-02-19T12:12:40;7.50;96.60
3418;DHT22;1722;51.316;12.370;2023-02-19T12:15:27;7.60;95.80
3418;DHT22;1722;51.316;12.370;2023-02-19T12:20:59;7.60;96.10
3418;DHT22;1722;51.316;12.370;2023-02-19T12:23:37;7.60;95.00
3418;DHT22;1722;51.316;12.370;2023-02-19T12:26:19;7.50;93.60
3418;DHT22;1722;51.316;12.370;2023-02-19T12:29:04;7.30;93.60
3418;DHT22;1722;51.316;12.370;2023-02-19T12:32:02;7.40;94.20
3418;DHT22;1722;51.316;12.370;2023-02-19T12:34:46;7.50;95.30
3418;DHT22;1722;51.316;12.370;2023-02-19T12:37:28;7.70;95.70
3418;DHT22;1722;51.316;12.370;2023-02-19T12:40:17;7.90;93.40
3418;DHT22;1722;51.316;12.370;2023-02-19T12:42:55;8.00;92.40
3418;DHT22;1722;51.316;12.370;2023-02-19T12:45:30;8.00;92.70
3418;DHT22;1722;51.316;12.370;2023-02-19T12:48:05;8.10;93.00
3418;DHT22;1722;51.316;12.370;2023-02-19T12:50:36;8.30;92.50
3418;DHT22;1722;51.316;12.370;2023-02-19T12:53:11;8.40;91.40
3418;DHT22;1722;51.316;12.370;2023-02-19T12:55:43;8.50;93.70
3418;DHT22;1722;51.316;12.370;2023-02-19T12:58:15;8.70;94.00
3418;DHT22;1722;51.316;12.370;2023-02-19T13:00:49;9.00;93.50
3418;DHT22;1722;51.316;12.370;2023-02-19T13:03:23;9.10;92.60
3418;DHT22;1722;51.316;12.370;2023-02-19T13:05:58;9.30;93.00
3418;DHT22;1722;51.316;12.370;2023-02-19T13:08:31;9.30;89.00
3418;DHT22;1722;51.316;12.370;2023-02-19T13:11:05;9.20;90.10
3418;DHT22;1722;51.316;12.370;2023-02-19T13:13:38;9.30;91.80
3418;DHT22;1722;51.316;12.370;2023-02-19T13:16:11;9.30;88.30
3418;DHT22;1722;51.316;12.370;2023-02-19T13:18:44;9.40;88.00
3418;DHT22;1722;51.316;12.370;2023-02-19T13:21:13;9.50;89.90
3418;DHT22;1722;51.316;12.370;2023-02-19T13:24:04;9.40;90.40
3418;DHT22;1722;51.316;12.370;2023-02-19T13:26:45;9.30;89.60
3418;DHT22;1722;51.316;12.370;2023-02-19T13:29:31;9.30;92.00
3418;DHT22;1722;51.316;12.370;2023-02-19T13:35:17;9.20;91.90
3418;DHT22;1722;51.316;12.370;2023-02-19T13:37:48;9.20;89.90
3418;DHT22;1722;51.316;12.370;2023-02-19T13:40:21;9.40;91.00
3418;DHT22;1722;51.316;12.370;2023-02-19T13:42:53;9.50;91.70
3418;DHT22;1722;51.316;12.370;2023-02-19T13:45:24;9.60;90.40
3418;DHT22;1722;51.316;12.370;2023-02-19T13:48:00;9.60;92.10
3418;DHT22;1722;51.316;12.370;2023-02-19T13:50:32;9.70;92.10
3418;DHT22;1722;51.316;12.370;2023-02-19T13:53:01;9.70;87.00
3418;DHT22;1722;51.316;12.370;2023-02-19T13:55:51;10.00;91.00
3418;DHT22;1722;51.316;12.370;2023-02-19T13:58:52;10.30;81.90
3418;DHT22;1722;51.316;12.370;2023-02-19T14:04:23;10.30;86.10
3418;DHT22;1722;51.316;12.370;2023-02-19T14:07:20;10.00;84.30
3418;DHT22;1722;51.316;12.370;2023-02-19T14:09:49;9.90;79.30
3418;DHT22;1722;51.316;12.370;2023-02-19T14:12:21;9.70;85.60
3418;DHT22;1722;51.316;12.370;2023-02-19T14:14:50;9.70;82.40
3418;DHT22;1722;51.316;12.370;2023-02-19T14:17:26;9.70;87.30
3418;DHT22;1722;51.316;12.370;2023-02-19T14:19:56;9.70;85.30
3418;DHT22;1722;51.316;12.370;2023-02-19T14:22:57;9.90;81.30
3418;DHT22;1722;51.316;12.370;2023-02-19T14:25:42;10.00;81.20
3418;DHT22;1722;51.316;12.370;2023-02-19T14:28:22;10.10;81.70
3418;DHT22;1722;51.316;12.370;2023-02-19T14:30:54;9.90;80.20
3418;DHT22;1722;51.316;12.370;2023-02-19T14:33:24;9.80;81.40
3418;DHT22;1722;51.316;12.370;2023-02-19T14:35:54;9.90;87.20
3418;DHT22;1722;51.316;12.370;2023-02-19T14:38:27;9.90;84.40
3418;DHT22;1722;51.316;12.370;2023-02-19T14:40:57;9.90;83.50
3418;DHT22;1722;51.316;12.370;2023-02-19T14:43:25;9.90;79.90
3418;DHT22;1722;51.316;12.370;2023-02-19T14:45:56;10.20;75.40
3418;DHT22;1722;51.316;12.370;2023-02-19T14:48:29;10.50;81.60
3418;DHT22;1722;51.316;12.370;2023-02-19T14:51:01;10.60;75.60
3418;DHT22;1722;51.316;12.370;2023-02-19T14:53:34;10.60;73.70
3418;DHT22;1722;51.316;12.370;2023-02-19T14:56:04;10.50;78.40
3418;DHT22;1722;51.316;12.370;2023-02-19T14:58:33;10.50;79.50
3418;DHT22;1722;51.316;12.370;2023-02-19T15:01:02;10.60;82.00
3418;DHT22;1722;51.316;12.370;2023-02-19T15:03:32;10.70;81.70
3418;DHT22;1722;51.316;12.370;2023-02-19T15:06:04;10.80;82.70
3418;DHT22;1722;51.316;12.370;2023-02-19T15:08:35;11.00;83.90
3418;DHT22;1722;51.316;12.370;2023-02-19T15:11:08;11.00;81.70
3418;DHT22;1722;51.316;12.370;2023-02-19T15:13:38;11.00;82.20
3418;DHT22;1722;51.316;12.370;2023-02-19T15:16:15;11.10;87.40
3418;DHT22;1722;51.316;12.370;2023-02-19T15:18:44;11.20;78.50
3418;DHT22;1722;51.316;12.370;2023-02-19T15:21:21;11.50;74.90
3418;DHT22;1722;51.316;12.370;2023-02-19T15:23:52;11.60;80.70
3418;DHT22;1722;51.316;12.370;2023-02-19T15:26:22;11.60;79.20
3418;DHT22;1722;51.316;12.370;2023-02-19T15:28:57;11.40;73.20
3418;DHT22;1722;51.316;12.370;2023-02-19T15:31:26;11.30;75.90
3418;DHT22;1722;51.316;12.370;2023-02-19T15:33:53;11.10;80.10
3418;DHT22;1722;51.316;12.370;2023-02-19T15:36:27;10.90;78.20
3418;DHT22;1722;51.316;12.370;2023-02-19T15:39:00;10.80;80.90
3418;DHT22;1722;51.316;12.370;2023-02-19T15:41:32;10.60;83.40
3418;DHT22;1722;51.316;12.370;2023-02-19T15:44:16;10.30;73.60
3418;DHT22;1722;51.316;12.370;2023-02-19T15:46:47;10.20;81.60
3418;DHT22;1722;51.316;12.370;2023-02-19T15:49:18;10.10;84.40
3418;DHT22;1722;51.316;12.370;2023-02-19T15:51:50;10.00;86.80
3418;DHT22;1722;51.316;12.370;2023-02-19T15:54:25;9.90;79.00
3418;DHT22;1722;51.316;12.370;2023-02-19T15:56:55;9.90;86.80
3418;DHT22;1722;51.316;12.370;2023-02-19T15:59:28;9.80;85.90
3418;DHT22;1722;51.316;12.370;2023-02-19T16:01:59;9.80;89.20
3418;DHT22;1722;51.316;12.370;2023-02-19T16:04:28;9.70;89.10
3418;DHT22;1722;51.316;12.370;2023-02-19T16:06:58;9.60;82.10
3418;DHT22;1722;51.316;12.370;2023-02-19T16:09:30;9.60;88.80
3418;DHT22;1722;51.316;12.370;2023-02-19T16:11:59;9.60;87.70
3418;DHT22;1722;51.316;12.370;2023-02-19T16:14:31;9.50;90.20
3418;DHT22;1722;51.316;12.370;2023-02-19T16:17:05;9.40;90.40
3418;DHT22;1722;51.316;12.370;2023-02-19T16:19:43;9.40;90.10
3418;DHT22;1722;51.316;12.370;2023-02-19T16:22:13;9.30;90.70
3418;DHT22;1722;51.316;12.370;2023-02-19T16:24:46;9.20;90.30
3418;DHT22;1722;51.316;12.370;2023-02-19T16:27:27;9.10;91.40
3418;DHT22;1722;51.316;12.370;2023-02-19T16:29:55;9.10;91.40
3418;DHT22;1722;51.316;12.370;2023-02-19T16:32:23;9.00;89.40
3418;DHT22;1722;51.316;12.370;2023-02-19T16:34:51;9.00;91.00
3418;DHT22;1722;51.316;12.370;2023-02-19T16:37:36;9.00;91.30
3418;DHT22;1722;51.316;12.370;2023-02-19T16:43:27;8.90;92.20
3418;DHT22;1722;51.316;12.370;2023-02-19T16:45:58;8.90;92.40
3418;DHT22;1722;51.316;12.370;2023-02-19T16:48:26;8.80;90.60
3418;DHT22;1722;51.316;12.370;2023-02-19T16:50:54;8.80;90.50
3418;DHT22;1722;51.316;12.370;2023-02-19T16:53:22;8.80;92.10